createdAt,value
2022-10-29T00:02:07.505Z,8.77
2022-10-29T00:12:49.380Z,10.10
2022-10-29T00:15:16.754Z,9.45
2022-10-29T00:20:28.797Z,8.73
2022-10-29T00:22:56.487Z,8.15
2022-10-29T00:25:23.875Z,9.30
2022-10-29T00:27:51.376Z,9.18
2022-10-29T00:33:03.100Z,9.00
2022-10-29T00:35:30.447Z,9.68
2022-10-29T00:37:58.142Z,9.30
2022-10-29T00:40:25.692Z,8.00
2022-10-29T00:42:53.006Z,9.93
2022-10-29T00:48:06.198Z,8.45
2022-10-29T00:50:34.008Z,7.38
2022-10-29T00:55:47.434Z,8.90
2022-10-29T00:58:15.182Z,9.50
2022-10-29T01:03:28.811Z,10.15
2022-10-29T01:05:56.299Z,9.80
2022-10-29T01:11:32.352Z,8.70
2022-10-29T01:14:24.228Z,8.63
2022-10-29T01:17:02.984Z,9.40
2022-10-29T01:20:09.248Z,9.02
2022-10-29T01:22:54.942Z,9.20
2022-10-29T01:28:38.211Z,11.30
2022-10-29T01:31:46.274Z,10.65
2022-10-29T01:37:29.257Z,8.55
2022-10-29T01:40:03.977Z,9.88
2022-10-29T01:42:47.352Z,9.73
2022-10-29T01:45:23.890Z,8.68
2022-10-29T01:48:00.796Z,9.65
2022-10-29T01:50:28.878Z,9.48
2022-10-29T01:52:57.456Z,8.93
2022-10-29T01:55:31.284Z,9.23
2022-10-29T01:57:59.859Z,9.65
2022-10-29T02:00:27.843Z,9.57
2022-10-29T02:03:41.055Z,7.88
2022-10-29T02:06:27.354Z,8.60
2022-10-29T02:09:29.423Z,10.50
2022-10-29T02:12:18.673Z,10.25
2022-10-29T02:15:03.049Z,10.65
2022-10-29T02:17:34.879Z,8.73
2022-10-29T02:22:50.288Z,8.65
2022-10-29T02:25:17.536Z,9.60
2022-10-29T02:30:29.824Z,11.90
2022-10-29T02:35:42.120Z,11.13
2022-10-29T02:38:09.349Z,13.00
2022-10-29T02:40:36.473Z,11.52
2022-10-29T02:43:03.592Z,10.50
2022-10-29T02:48:18.055Z,9.15
2022-10-29T02:56:14.798Z,10.35
2022-10-29T02:58:42.081Z,9.85
2022-10-29T03:01:09.241Z,11.98
2022-10-29T03:03:36.465Z,9.52
2022-10-29T03:06:03.791Z,11.90
2022-10-29T03:08:31.150Z,9.85
2022-10-29T03:10:58.412Z,10.45
2022-10-29T03:13:25.723Z,11.63
2022-10-29T03:15:53.017Z,10.45
2022-10-29T03:21:05.190Z,11.40
2022-10-29T03:23:32.402Z,8.50
2022-10-29T03:31:29.902Z,10.07
2022-10-29T03:33:57.387Z,8.35
2022-10-29T03:36:24.960Z,8.25
2022-10-29T03:38:52.247Z,10.15
2022-10-29T03:41:19.504Z,8.43
2022-10-29T03:49:15.949Z,9.25
2022-10-29T03:51:43.371Z,10.93
2022-10-29T03:59:40.078Z,11.68
2022-10-29T04:02:07.567Z,12.43
2022-10-29T04:04:34.946Z,13.05
2022-10-29T04:07:04.883Z,10.27
2022-10-29T04:09:32.012Z,10.02
2022-10-29T04:12:00.581Z,11.93
2022-10-29T04:14:27.918Z,10.68
2022-10-29T04:16:54.937Z,11.93
2022-10-29T04:19:22.172Z,12.48
2022-10-29T04:26:34.677Z,10.57
2022-10-29T04:30:09.332Z,11.52
2022-10-29T04:32:36.897Z,12.00
2022-10-29T04:35:04.207Z,10.18
2022-10-29T04:43:02.124Z,10.82
2022-10-29T04:48:13.788Z,8.02
2022-10-29T04:58:54.785Z,7.07
2022-10-29T05:01:22.299Z,9.32
2022-10-29T05:03:49.606Z,8.10
2022-10-29T05:06:16.869Z,9.25
2022-10-29T05:08:44.226Z,9.10
2022-10-29T05:11:11.446Z,9.60
2022-10-29T05:13:38.660Z,7.40
2022-10-29T05:21:36.072Z,6.87
2022-10-29T05:24:03.382Z,7.85
2022-10-29T05:26:33.535Z,8.65
2022-10-29T05:29:00.853Z,7.60
2022-10-29T05:31:28.065Z,6.18
2022-10-29T05:33:56.081Z,6.07
2022-10-29T05:36:23.512Z,7.90
2022-10-29T05:38:50.641Z,5.63
2022-10-29T05:41:17.934Z,5.53
2022-10-29T05:43:48.981Z,4.85
2022-10-29T05:46:20.137Z,5.60
2022-10-29T05:48:47.369Z,4.47
2022-10-29T05:51:14.585Z,4.70
2022-10-29T05:53:41.998Z,5.63
2022-10-29T05:56:09.229Z,7.38
2022-10-29T05:58:36.536Z,7.10
2022-10-29T06:01:10.314Z,7.90
2022-10-29T06:03:38.569Z,6.00
2022-10-29T06:06:06.050Z,5.95
2022-10-29T06:11:20.333Z,6.80
2022-10-29T06:22:01.965Z,6.93
2022-10-29T06:27:13.496Z,9.23
2022-10-29T06:29:40.778Z,10.05
2022-10-29T06:34:52.651Z,11.70
2022-10-29T06:37:20.099Z,11.65
2022-10-29T06:39:47.353Z,11.40
2022-10-29T06:42:14.721Z,11.40
2022-10-29T06:44:41.887Z,10.30
2022-10-29T06:47:09.209Z,10.48
2022-10-29T06:49:36.537Z,9.77
2022-10-29T06:52:03.956Z,8.82
2022-10-29T06:54:31.409Z,9.20
2022-10-29T06:56:59.350Z,7.90
2022-10-29T06:59:26.665Z,8.02
2022-10-29T07:01:53.779Z,9.50
2022-10-29T07:04:21.514Z,8.00
2022-10-29T07:06:48.958Z,9.18
2022-10-29T07:09:16.103Z,9.50
2022-10-29T07:11:44.837Z,8.85
2022-10-29T07:14:14.572Z,8.52
2022-10-29T07:22:11.491Z,9.52
2022-10-29T07:27:23.275Z,10.45
2022-10-29T07:29:50.551Z,11.27
2022-10-29T07:32:17.872Z,11.60
2022-10-29T07:34:44.911Z,11.52
2022-10-29T07:37:12.079Z,10.23
2022-10-29T07:42:23.901Z,11.75
2022-10-29T07:44:51.123Z,11.10
2022-10-29T07:47:18.329Z,9.90
2022-10-29T07:49:45.838Z,11.27
2022-10-29T07:52:13.030Z,12.48
2022-10-29T07:54:40.132Z,12.73
2022-10-29T07:59:52.288Z,12.35
2022-10-29T08:05:04.820Z,11.40
2022-10-29T08:07:32.066Z,10.68
2022-10-29T08:09:59.194Z,10.50
2022-10-29T08:12:26.433Z,10.45
2022-10-29T08:14:53.620Z,10.73
2022-10-29T08:17:20.657Z,11.07
2022-10-29T08:19:48.038Z,10.88
2022-10-29T08:22:15.242Z,10.18
2022-10-29T08:24:42.529Z,13.68
2022-10-29T08:27:09.784Z,14.90
2022-10-29T08:29:37.207Z,15.10
2022-10-29T08:32:04.463Z,15.77
2022-10-29T08:34:31.761Z,17.55
2022-10-29T08:45:48.358Z,19.00
2022-10-29T08:51:26.408Z,21.10
2022-10-29T08:59:44.307Z,20.70
2022-10-29T09:02:17.446Z,21.58
2022-10-29T09:08:11.985Z,24.98
2022-10-29T09:10:55.081Z,23.52
2022-10-29T09:13:22.213Z,21.30
2022-10-29T09:16:07.747Z,24.02
2022-10-29T09:18:40.937Z,22.52
2022-10-29T09:27:46.568Z,21.42
2022-10-29T09:30:18.155Z,22.20
2022-10-29T09:33:05.399Z,22.77
2022-10-29T09:35:44.760Z,22.45
2022-10-29T09:38:24.367Z,23.63
2022-10-29T09:40:52.020Z,22.75
2022-10-29T09:46:55.471Z,23.00
2022-10-29T09:52:45.830Z,20.73
2022-10-29T09:55:26.520Z,20.58
2022-10-29T10:00:41.641Z,20.55
2022-10-29T10:03:16.067Z,21.58
2022-10-29T10:06:01.934Z,19.97
2022-10-29T10:08:30.088Z,19.35
2022-10-29T10:11:08.630Z,20.02
2022-10-29T10:13:58.100Z,21.38
2022-10-29T10:19:24.394Z,18.00
2022-10-29T10:22:03.311Z,24.23
2022-10-29T10:24:35.939Z,19.98
2022-10-29T10:27:18.156Z,22.67
2022-10-29T10:36:10.185Z,19.83
2022-10-29T10:38:53.210Z,18.45
2022-10-29T10:44:14.016Z,15.93
2022-10-29T10:49:37.992Z,16.02
2022-10-29T10:55:23.289Z,17.08
2022-10-29T11:04:37.194Z,12.77
2022-10-29T11:07:13.039Z,13.15
2022-10-29T11:09:48.681Z,14.15
2022-10-29T11:12:37.184Z,13.55
2022-10-29T11:15:18.317Z,12.63
2022-10-29T11:20:43.646Z,14.27
2022-10-29T11:26:13.973Z,12.85
2022-10-29T11:29:09.801Z,12.15
2022-10-29T11:32:01.405Z,14.13
2022-10-29T11:34:52.109Z,12.27
2022-10-29T11:37:28.175Z,11.60
2022-10-29T11:40:15.845Z,13.05
2022-10-29T11:42:43.411Z,12.30
2022-10-29T11:45:29.825Z,12.18
2022-10-29T11:48:35.473Z,12.88
2022-10-29T11:51:15.659Z,13.90
2022-10-29T11:54:06.561Z,12.00
2022-10-29T11:56:36.916Z,12.00
2022-10-29T12:02:39.140Z,10.63
2022-10-29T12:05:37.255Z,11.25
2022-10-29T12:08:08.360Z,11.70
2022-10-29T12:11:05.345Z,10.13
2022-10-29T12:13:44.603Z,10.98
2022-10-29T12:16:49.474Z,11.65
2022-10-29T12:19:48.549Z,11.35
2022-10-29T12:22:31.579Z,12.60
2022-10-29T12:28:39.921Z,10.15
2022-10-29T12:37:37.255Z,12.43
2022-10-29T12:40:33.595Z,10.90
2022-10-29T12:43:05.905Z,11.35
2022-10-29T12:46:06.428Z,10.88
2022-10-29T12:51:51.494Z,11.07
2022-10-29T12:57:38.417Z,10.07
2022-10-29T13:00:23.633Z,9.13
2022-10-29T13:05:40.094Z,11.23
2022-10-29T13:08:19.067Z,11.35
2022-10-29T13:10:54.293Z,12.25
2022-10-29T13:16:27.412Z,11.07
2022-10-29T13:19:23.639Z,10.50
2022-10-29T13:21:59.518Z,9.30
2022-10-29T13:24:27.942Z,9.48
2022-10-29T13:30:11.650Z,11.30
2022-10-29T13:32:39.591Z,10.07
2022-10-29T13:35:27.578Z,8.63
2022-10-29T13:38:16.244Z,9.75
2022-10-29T13:41:02.467Z,10.43
2022-10-29T13:43:30.722Z,10.65
2022-10-29T13:46:27.369Z,10.80
2022-10-29T13:52:11.295Z,9.88
2022-10-29T13:55:05.943Z,12.00
2022-10-29T13:58:19.781Z,9.02
2022-10-29T14:00:48.298Z,13.60
2022-10-29T14:03:33.497Z,10.48
2022-10-29T14:06:08.632Z,9.95
2022-10-29T14:08:44.384Z,10.52
2022-10-29T14:14:49.319Z,11.68
2022-10-29T14:17:18.423Z,9.68
2022-10-29T14:19:47.923Z,10.05
2022-10-29T14:25:33.811Z,10.18
2022-10-29T14:28:17.948Z,10.70
2022-10-29T14:33:44.886Z,12.15
2022-10-29T14:36:36.145Z,10.27
2022-10-29T14:44:50.063Z,9.52
2022-10-29T14:47:33.410Z,9.07
2022-10-29T14:50:04.840Z,9.23
2022-10-29T14:52:40.014Z,9.43
2022-10-29T14:55:14.785Z,10.40
2022-10-29T14:57:47.426Z,11.18
2022-10-29T15:03:22.297Z,10.18
2022-10-29T15:08:40.088Z,9.98
2022-10-29T15:11:35.574Z,11.40
2022-10-29T15:19:34.727Z,10.80
2022-10-29T15:22:07.576Z,12.80
2022-10-29T15:24:34.859Z,10.55
2022-10-29T15:29:52.061Z,11.15
2022-10-29T15:32:19.990Z,10.48
2022-10-29T15:34:59.539Z,10.15
2022-10-29T15:37:42.282Z,11.25
2022-10-29T15:43:28.432Z,12.05
2022-10-29T15:46:02.892Z,11.13
2022-10-29T15:51:26.635Z,10.95
2022-10-29T15:53:57.129Z,9.65
2022-10-29T15:56:25.279Z,11.98
2022-10-29T15:58:53.452Z,13.25
2022-10-29T16:01:21.039Z,11.07
2022-10-29T16:03:48.329Z,10.38
2022-10-29T16:06:16.802Z,10.07
2022-10-29T16:08:50.199Z,11.18
2022-10-29T16:14:11.178Z,10.23
2022-10-29T16:16:38.864Z,9.95
2022-10-29T16:19:06.134Z,11.00
2022-10-29T16:21:33.371Z,9.77
2022-10-29T16:26:44.980Z,10.48
2022-10-29T16:29:12.425Z,11.27
2022-10-29T16:31:39.577Z,11.50
2022-10-29T16:34:11.487Z,10.23
2022-10-29T16:36:39.030Z,10.18
2022-10-29T16:41:51.176Z,15.57
2022-10-29T16:47:02.953Z,15.98
2022-10-29T16:49:30.374Z,13.23
2022-10-29T16:51:58.211Z,13.85
2022-10-29T16:54:25.557Z,13.80
2022-10-29T16:56:55.184Z,12.70
2022-10-29T16:59:22.527Z,13.65
2022-10-29T17:01:49.826Z,13.15
2022-10-29T17:04:16.911Z,15.98
2022-10-29T17:06:44.138Z,16.67
2022-10-29T17:09:12.431Z,14.35
2022-10-29T17:11:39.748Z,13.88
2022-10-29T17:14:07.224Z,14.98
2022-10-29T17:21:47.565Z,17.48
2022-10-29T17:24:14.984Z,14.75
2022-10-29T17:29:27.209Z,17.92
2022-10-29T17:31:54.563Z,25.42
2022-10-29T17:37:07.047Z,22.65
2022-10-29T17:39:34.390Z,24.25
2022-10-29T17:42:04.949Z,27.73
2022-10-29T17:44:34.221Z,23.50
2022-10-29T17:47:01.555Z,24.23
2022-10-29T17:49:29.307Z,26.92
2022-10-29T17:51:56.743Z,27.10
2022-10-29T17:57:08.653Z,25.58
2022-10-29T17:59:35.997Z,23.25
2022-10-29T18:02:03.850Z,23.15
2022-10-29T18:04:31.288Z,21.13
2022-10-29T18:06:58.539Z,19.55
2022-10-29T18:12:10.215Z,20.13
2022-10-29T18:14:37.727Z,20.95
2022-10-29T18:17:05.060Z,19.77
2022-10-29T18:19:32.479Z,17.27
2022-10-29T18:21:59.583Z,20.25
2022-10-29T18:24:27.242Z,18.40
2022-10-29T18:26:54.392Z,19.27
2022-10-29T18:29:21.871Z,19.90
2022-10-29T18:31:49.094Z,15.57
2022-10-29T18:34:17.133Z,18.05
2022-10-29T18:36:44.506Z,18.98
2022-10-29T18:39:11.645Z,20.40
2022-10-29T18:41:39.907Z,20.38
2022-10-29T18:44:07.382Z,19.27
2022-10-29T18:46:34.917Z,21.10
2022-10-29T18:49:02.019Z,20.70
2022-10-29T18:51:32.122Z,20.80
2022-10-29T18:54:00.514Z,24.85
2022-10-29T18:56:30.095Z,25.02
2022-10-29T18:58:58.470Z,25.70
2022-10-29T19:01:28.723Z,24.33
2022-10-29T19:03:58.830Z,27.52
2022-10-29T19:06:28.911Z,23.60
2022-10-29T19:08:56.973Z,24.67
2022-10-29T19:11:26.146Z,23.58
2022-10-29T19:14:01.668Z,25.63
2022-10-29T19:16:30.226Z,27.38
2022-10-29T19:18:59.962Z,26.65
2022-10-29T19:21:27.737Z,28.10
2022-10-29T19:24:01.601Z,27.55
2022-10-29T19:26:31.255Z,25.77
2022-10-29T19:31:47.263Z,25.80
2022-10-29T19:34:14.494Z,29.90
2022-10-29T19:36:41.900Z,28.65
2022-10-29T19:39:09.284Z,28.70
2022-10-29T19:41:37.432Z,24.67
2022-10-29T19:44:04.819Z,25.17
2022-10-29T19:46:31.980Z,23.65
2022-10-29T19:48:59.503Z,29.00
2022-10-29T19:51:27.362Z,29.65
2022-10-29T19:53:54.849Z,25.33
2022-10-29T19:56:22.201Z,28.67
2022-10-29T20:01:34.160Z,26.40
2022-10-29T20:06:46.483Z,27.20
2022-10-29T20:11:58.205Z,27.63
2022-10-29T20:14:28.990Z,26.25
2022-10-29T20:16:56.563Z,26.30
2022-10-29T20:19:24.174Z,30.15
2022-10-29T20:21:51.329Z,28.25
2022-10-29T20:24:18.693Z,28.83
2022-10-29T20:29:30.522Z,27.40
2022-10-29T20:31:57.742Z,25.95
2022-10-29T20:34:25.047Z,26.15
2022-10-29T20:36:52.810Z,25.55
2022-10-29T20:39:20.422Z,27.67
2022-10-29T20:41:48.237Z,28.33
2022-10-29T20:44:15.514Z,27.35
2022-10-29T20:46:43.918Z,24.73
2022-10-29T20:51:55.416Z,25.70
2022-10-29T20:57:07.882Z,24.75
2022-10-29T20:59:35.366Z,26.10
2022-10-29T21:02:02.878Z,26.30
2022-10-29T21:04:30.513Z,25.40
2022-10-29T21:06:57.706Z,24.92
2022-10-29T21:09:25.351Z,25.27
2022-10-29T21:11:52.852Z,25.63
2022-10-29T21:14:20.174Z,27.17
2022-10-29T21:17:22.620Z,24.40
2022-10-29T21:19:50.091Z,22.95
2022-10-29T21:22:19.211Z,25.35
2022-10-29T21:24:46.916Z,24.52
2022-10-29T21:27:14.181Z,23.98
2022-10-29T21:35:17.078Z,21.42
2022-10-29T21:40:29.504Z,20.90
2022-10-29T21:42:56.982Z,24.75
2022-10-29T21:45:24.713Z,23.77
2022-10-29T21:50:37.177Z,25.02
2022-10-29T21:53:05.790Z,22.77
2022-10-29T21:55:33.195Z,21.75
2022-10-29T22:00:45.486Z,22.17
2022-10-29T22:03:13.036Z,22.63
2022-10-29T22:06:19.442Z,23.90
2022-10-29T22:11:44.504Z,21.67
2022-10-29T22:14:11.550Z,20.63
2022-10-29T22:16:38.597Z,24.10
2022-10-29T22:19:05.738Z,19.95
2022-10-29T22:21:33.131Z,22.40
2022-10-29T22:24:00.421Z,22.77
2022-10-29T22:26:30.743Z,21.02
2022-10-29T22:28:58.266Z,22.60
2022-10-29T22:31:26.674Z,21.08
2022-10-29T22:33:53.941Z,22.75
2022-10-29T22:36:26.620Z,22.08
2022-10-29T22:38:58.774Z,20.55
2022-10-29T22:41:27.250Z,20.83
2022-10-29T22:43:55.390Z,21.60
2022-10-29T22:46:22.895Z,20.45
2022-10-29T22:51:35.463Z,23.67
2022-10-29T22:56:47.785Z,21.60
2022-10-29T22:59:19.386Z,22.02
2022-10-29T23:01:46.755Z,23.10
2022-10-29T23:04:14.333Z,24.60
2022-10-29T23:06:42.088Z,18.85
2022-10-29T23:09:09.425Z,20.30
2022-10-29T23:11:39.391Z,19.85
2022-10-29T23:14:06.759Z,18.85
2022-10-29T23:22:05.086Z,20.17
2022-10-29T23:24:32.587Z,22.75
2022-10-29T23:26:59.969Z,21.75
2022-10-29T23:29:27.058Z,19.73
2022-10-29T23:31:54.215Z,19.35
2022-10-29T23:34:21.292Z,18.55
2022-10-29T23:36:48.528Z,22.25
2022-10-29T23:39:15.921Z,21.20
2022-10-29T23:41:43.029Z,19.60
2022-10-29T23:44:10.651Z,21.45
2022-10-29T23:49:22.774Z,20.80
2022-10-29T23:51:49.965Z,17.83
2022-10-29T23:54:17.437Z,21.85
2022-10-29T23:56:44.656Z,22.65
2022-10-29T23:59:12.008Z,21.05
